sensor_id;sensor_type;location;lat;lon;timestamp;P1;durP1;ratioP1;P2;durP2;ratioP2
24357;SDS011;13668;52.154;5.580;2023-04-29T00:01:34;16.77;;;8.68;;
24357;SDS011;13668;52.154;5.580;2023-04-29T00:04:00;17.50;;;7.40;;
24357;SDS011;13668;52.154;5.580;2023-04-29T00:06:26;19.45;;;8.65;;
24357;SDS011;13668;52.154;5.580;2023-04-29T00:08:52;15.77;;;7.95;;
24357;SDS011;13668;52.154;5.580;2023-04-29T00:11:18;15.25;;;7.15;;
24357;SDS011;13668;52.154;5.580;2023-04-29T00:13:44;15.30;;;8.60;;
24357;SDS011;13668;52.154;5.580;2023-04-29T00:16:10;18.60;;;8.52;;
24357;SDS011;13668;52.154;5.580;2023-04-29T00:18:37;16.00;;;7.97;;
24357;SDS011;13668;52.154;5.580;2023-04-29T00:21:03;17.30;;;8.38;;
24357;SDS011;13668;52.154;5.580;2023-04-29T00:23:30;17.13;;;7.15;;
24357;SDS011;13668;52.154;5.580;2023-04-29T00:25:56;20.08;;;9.40;;
24357;SDS011;13668;52.154;5.580;2023-04-29T00:28:22;15.38;;;8.95;;
24357;SDS011;13668;52.154;5.580;2023-04-29T00:30:48;17.90;;;9.02;;
24357;SDS011;13668;52.154;5.580;2023-04-29T00:33:14;16.58;;;8.02;;
24357;SDS011;13668;52.154;5.580;2023-04-29T00:35:40;14.68;;;8.73;;
24357;SDS011;13668;52.154;5.580;2023-04-29T00:38:05;15.30;;;7.97;;
24357;SDS011;13668;52.154;5.580;2023-04-29T00:40:31;18.58;;;8.30;;
24357;SDS011;13668;52.154;5.580;2023-04-29T00:42:57;16.15;;;8.25;;
24357;SDS011;13668;52.154;5.580;2023-04-29T00:45:23;17.80;;;8.45;;
24357;SDS011;13668;52.154;5.580;2023-04-29T00:47:49;19.85;;;9.50;;
24357;SDS011;13668;52.154;5.580;2023-04-29T00:50:16;19.00;;;8.35;;
24357;SDS011;13668;52.154;5.580;2023-04-29T00:52:42;15.32;;;8.00;;
24357;SDS011;13668;52.154;5.580;2023-04-29T00:55:08;15.77;;;8.25;;
24357;SDS011;13668;52.154;5.580;2023-04-29T00:57:36;16.00;;;7.95;;
24357;SDS011;13668;52.154;5.580;2023-04-29T01:00:03;14.50;;;8.00;;
24357;SDS011;13668;52.154;5.580;2023-04-29T01:02:29;12.75;;;7.45;;
24357;SDS011;13668;52.154;5.580;2023-04-29T01:04:55;13.10;;;7.20;;
24357;SDS011;13668;52.154;5.580;2023-04-29T01:07:24;23.90;;;9.65;;
24357;SDS011;13668;52.154;5.580;2023-04-29T01:09:57;14.63;;;7.60;;
24357;SDS011;13668;52.154;5.580;2023-04-29T01:12:33;16.52;;;8.15;;
24357;SDS011;13668;52.154;5.580;2023-04-29T01:15:08;13.70;;;6.45;;
24357;SDS011;13668;52.154;5.580;2023-04-29T01:17:38;13.20;;;6.95;;
24357;SDS011;13668;52.154;5.580;2023-04-29T01:20:05;16.67;;;8.02;;
24357;SDS011;13668;52.154;5.580;2023-04-29T01:22:31;14.85;;;7.28;;
24357;SDS011;13668;52.154;5.580;2023-04-29T01:24:57;17.95;;;8.32;;
24357;SDS011;13668;52.154;5.580;2023-04-29T01:32:23;16.73;;;8.30;;
24357;SDS011;13668;52.154;5.580;2023-04-29T01:34:58;17.58;;;7.93;;
24357;SDS011;13668;52.154;5.580;2023-04-29T01:37:32;20.70;;;9.45;;
24357;SDS011;13668;52.154;5.580;2023-04-29T01:40:04;15.68;;;8.75;;
24357;SDS011;13668;52.154;5.580;2023-04-29T01:42:43;19.83;;;9.80;;
24357;SDS011;13668;52.154;5.580;2023-04-29T01:45:10;19.60;;;8.88;;
24357;SDS011;13668;52.154;5.580;2023-04-29T01:47:39;14.57;;;8.95;;
24357;SDS011;13668;52.154;5.580;2023-04-29T01:50:05;16.90;;;9.63;;
24357;SDS011;13668;52.154;5.580;2023-04-29T01:52:31;17.00;;;8.35;;
24357;SDS011;13668;52.154;5.580;2023-04-29T01:54:57;15.25;;;9.35;;
24357;SDS011;13668;52.154;5.580;2023-04-29T01:57:23;15.57;;;7.47;;
24357;SDS011;13668;52.154;5.580;2023-04-29T01:59:49;17.35;;;8.25;;
24357;SDS011;13668;52.154;5.580;2023-04-29T02:02:16;14.63;;;8.02;;
24357;SDS011;13668;52.154;5.580;2023-04-29T02:04:45;15.02;;;7.57;;
24357;SDS011;13668;52.154;5.580;2023-04-29T02:07:11;15.13;;;7.90;;
24357;SDS011;13668;52.154;5.580;2023-04-29T02:09:37;18.08;;;8.32;;
24357;SDS011;13668;52.154;5.580;2023-04-29T02:12:03;15.10;;;7.40;;
24357;SDS011;13668;52.154;5.580;2023-04-29T02:14:30;15.80;;;7.68;;
24357;SDS011;13668;52.154;5.580;2023-04-29T02:16:58;16.42;;;8.18;;
24357;SDS011;13668;52.154;5.580;2023-04-29T02:19:25;18.27;;;7.78;;
24357;SDS011;13668;52.154;5.580;2023-04-29T02:21:50;19.00;;;9.07;;
24357;SDS011;13668;52.154;5.580;2023-04-29T02:24:17;13.38;;;8.30;;
24357;SDS011;13668;52.154;5.580;2023-04-29T02:26:42;15.18;;;7.32;;
24357;SDS011;13668;52.154;5.580;2023-04-29T02:29:08;21.95;;;8.23;;
24357;SDS011;13668;52.154;5.580;2023-04-29T02:31:34;16.15;;;7.90;;
24357;SDS011;13668;52.154;5.580;2023-04-29T02:34:00;14.55;;;7.13;;
24357;SDS011;13668;52.154;5.580;2023-04-29T02:36:26;14.95;;;7.90;;
24357;SDS011;13668;52.154;5.580;2023-04-29T02:38:52;13.10;;;6.70;;
24357;SDS011;13668;52.154;5.580;2023-04-29T02:41:19;13.15;;;7.13;;
24357;SDS011;13668;52.154;5.580;2023-04-29T02:43:45;14.32;;;7.03;;
24357;SDS011;13668;52.154;5.580;2023-04-29T02:46:13;13.88;;;7.50;;
24357;SDS011;13668;52.154;5.580;2023-04-29T02:48:39;15.10;;;7.85;;
24357;SDS011;13668;52.154;5.580;2023-04-29T02:51:05;14.13;;;8.00;;
24357;SDS011;13668;52.154;5.580;2023-04-29T02:53:31;11.10;;;6.97;;
24357;SDS011;13668;52.154;5.580;2023-04-29T02:55:57;13.15;;;6.55;;
24357;SDS011;13668;52.154;5.580;2023-04-29T02:58:23;12.45;;;6.30;;
24357;SDS011;13668;52.154;5.580;2023-04-29T03:00:49;11.82;;;6.82;;
24357;SDS011;13668;52.154;5.580;2023-04-29T03:03:15;11.50;;;6.95;;
24357;SDS011;13668;52.154;5.580;2023-04-29T03:05:41;8.73;;;6.30;;
24357;SDS011;13668;52.154;5.580;2023-04-29T03:08:07;10.57;;;6.72;;
24357;SDS011;13668;52.154;5.580;2023-04-29T03:10:34;12.50;;;6.60;;
24357;SDS011;13668;52.154;5.580;2023-04-29T03:13:00;13.77;;;6.78;;
24357;SDS011;13668;52.154;5.580;2023-04-29T03:15:26;9.73;;;5.72;;
24357;SDS011;13668;52.154;5.580;2023-04-29T03:17:52;11.00;;;5.68;;
24357;SDS011;13668;52.154;5.580;2023-04-29T03:20:18;13.65;;;6.85;;
24357;SDS011;13668;52.154;5.580;2023-04-29T03:22:44;10.38;;;6.07;;
24357;SDS011;13668;52.154;5.580;2023-04-29T03:25:10;12.52;;;5.97;;
24357;SDS011;13668;52.154;5.580;2023-04-29T03:27:37;14.20;;;6.60;;
24357;SDS011;13668;52.154;5.580;2023-04-29T03:30:03;9.38;;;5.75;;
24357;SDS011;13668;52.154;5.580;2023-04-29T03:32:29;8.68;;;5.45;;
24357;SDS011;13668;52.154;5.580;2023-04-29T03:34:55;11.85;;;6.07;;
24357;SDS011;13668;52.154;5.580;2023-04-29T03:37:21;13.13;;;6.07;;
24357;SDS011;13668;52.154;5.580;2023-04-29T03:39:47;10.77;;;6.32;;
24357;SDS011;13668;52.154;5.580;2023-04-29T03:42:13;12.13;;;6.80;;
24357;SDS011;13668;52.154;5.580;2023-04-29T03:44:39;9.95;;;6.53;;
24357;SDS011;13668;52.154;5.580;2023-04-29T03:47:05;12.48;;;7.13;;
24357;SDS011;13668;52.154;5.580;2023-04-29T03:49:32;10.80;;;6.80;;
24357;SDS011;13668;52.154;5.580;2023-04-29T03:51:58;9.43;;;5.47;;
24357;SDS011;13668;52.154;5.580;2023-04-29T03:54:24;11.63;;;7.07;;
24357;SDS011;13668;52.154;5.580;2023-04-29T03:56:50;16.00;;;7.35;;
24357;SDS011;13668;52.154;5.580;2023-04-29T03:59:16;13.93;;;7.38;;
24357;SDS011;13668;52.154;5.580;2023-04-29T04:01:42;14.13;;;7.43;;
24357;SDS011;13668;52.154;5.580;2023-04-29T04:04:08;13.45;;;7.63;;
24357;SDS011;13668;52.154;5.580;2023-04-29T04:06:34;14.02;;;7.68;;
24357;SDS011;13668;52.154;5.580;2023-04-29T04:09:00;17.02;;;7.82;;
24357;SDS011;13668;52.154;5.580;2023-04-29T04:11:26;18.15;;;7.97;;
24357;SDS011;13668;52.154;5.580;2023-04-29T04:13:52;11.15;;;6.65;;
24357;SDS011;13668;52.154;5.580;2023-04-29T04:16:18;12.77;;;7.25;;
24357;SDS011;13668;52.154;5.580;2023-04-29T04:18:44;11.40;;;6.88;;
24357;SDS011;13668;52.154;5.580;2023-04-29T04:21:19;13.23;;;7.95;;
24357;SDS011;13668;52.154;5.580;2023-04-29T04:23:45;17.27;;;9.32;;
24357;SDS011;13668;52.154;5.580;2023-04-29T04:26:11;12.77;;;8.25;;
24357;SDS011;13668;52.154;5.580;2023-04-29T04:28:37;13.90;;;8.25;;
24357;SDS011;13668;52.154;5.580;2023-04-29T04:31:05;14.90;;;7.20;;
24357;SDS011;13668;52.154;5.580;2023-04-29T04:33:32;12.80;;;8.25;;
24357;SDS011;13668;52.154;5.580;2023-04-29T04:35:58;11.68;;;7.80;;
24357;SDS011;13668;52.154;5.580;2023-04-29T04:38:24;14.85;;;8.45;;
24357;SDS011;13668;52.154;5.580;2023-04-29T04:40:51;10.45;;;6.57;;
24357;SDS011;13668;52.154;5.580;2023-04-29T04:43:17;10.75;;;6.53;;
24357;SDS011;13668;52.154;5.580;2023-04-29T04:45:43;11.98;;;7.35;;
24357;SDS011;13668;52.154;5.580;2023-04-29T04:48:09;14.07;;;7.20;;
24357;SDS011;13668;52.154;5.580;2023-04-29T04:50:35;10.25;;;6.75;;
24357;SDS011;13668;52.154;5.580;2023-04-29T04:53:01;11.80;;;7.40;;
24357;SDS011;13668;52.154;5.580;2023-04-29T04:55:27;13.35;;;7.45;;
24357;SDS011;13668;52.154;5.580;2023-04-29T04:57:57;12.35;;;7.07;;
24357;SDS011;13668;52.154;5.580;2023-04-29T05:00:23;15.18;;;8.23;;
24357;SDS011;13668;52.154;5.580;2023-04-29T05:02:49;11.75;;;7.90;;
24357;SDS011;13668;52.154;5.580;2023-04-29T05:05:15;12.68;;;7.97;;
24357;SDS011;13668;52.154;5.580;2023-04-29T05:07:41;10.90;;;6.22;;
24357;SDS011;13668;52.154;5.580;2023-04-29T05:10:08;11.70;;;6.18;;
24357;SDS011;13668;52.154;5.580;2023-04-29T05:12:34;14.60;;;7.70;;
24357;SDS011;13668;52.154;5.580;2023-04-29T05:15:00;15.18;;;6.93;;
24357;SDS011;13668;52.154;5.580;2023-04-29T05:17:26;11.20;;;6.63;;
24357;SDS011;13668;52.154;5.580;2023-04-29T05:19:52;12.52;;;6.90;;
24357;SDS011;13668;52.154;5.580;2023-04-29T05:22:18;10.60;;;6.38;;
24357;SDS011;13668;52.154;5.580;2023-04-29T05:24:44;11.85;;;7.72;;
24357;SDS011;13668;52.154;5.580;2023-04-29T05:27:12;13.38;;;7.18;;
24357;SDS011;13668;52.154;5.580;2023-04-29T05:29:38;12.43;;;7.85;;
24357;SDS011;13668;52.154;5.580;2023-04-29T05:32:04;14.25;;;6.75;;
24357;SDS011;13668;52.154;5.580;2023-04-29T05:34:30;11.50;;;7.07;;
24357;SDS011;13668;52.154;5.580;2023-04-29T05:36:56;9.48;;;6.35;;
24357;SDS011;13668;52.154;5.580;2023-04-29T05:39:22;10.98;;;7.07;;
24357;SDS011;13668;52.154;5.580;2023-04-29T05:41:48;14.65;;;7.60;;
24357;SDS011;13668;52.154;5.580;2023-04-29T05:44:14;10.93;;;6.13;;
24357;SDS011;13668;52.154;5.580;2023-04-29T05:46:40;11.77;;;7.05;;
24357;SDS011;13668;52.154;5.580;2023-04-29T05:49:06;12.77;;;7.13;;
24357;SDS011;13668;52.154;5.580;2023-04-29T05:51:32;12.10;;;7.20;;
24357;SDS011;13668;52.154;5.580;2023-04-29T05:53:58;10.80;;;6.97;;
24357;SDS011;13668;52.154;5.580;2023-04-29T05:56:24;11.57;;;6.72;;
24357;SDS011;13668;52.154;5.580;2023-04-29T05:58:50;14.18;;;7.13;;
24357;SDS011;13668;52.154;5.580;2023-04-29T06:01:16;13.38;;;7.32;;
24357;SDS011;13668;52.154;5.580;2023-04-29T06:03:42;10.43;;;7.05;;
24357;SDS011;13668;52.154;5.580;2023-04-29T06:06:08;13.60;;;6.80;;
24357;SDS011;13668;52.154;5.580;2023-04-29T06:08:35;14.13;;;6.75;;
24357;SDS011;13668;52.154;5.580;2023-04-29T06:11:01;14.00;;;6.72;;
24357;SDS011;13668;52.154;5.580;2023-04-29T06:13:29;12.88;;;6.63;;
24357;SDS011;13668;52.154;5.580;2023-04-29T06:15:55;11.10;;;7.20;;
24357;SDS011;13668;52.154;5.580;2023-04-29T06:18:21;11.30;;;6.55;;
24357;SDS011;13668;52.154;5.580;2023-04-29T06:20:47;12.00;;;6.65;;
24357;SDS011;13668;52.154;5.580;2023-04-29T06:23:16;12.38;;;6.25;;
24357;SDS011;13668;52.154;5.580;2023-04-29T06:25:42;14.05;;;6.45;;
24357;SDS011;13668;52.154;5.580;2023-04-29T06:28:08;9.75;;;5.70;;
24357;SDS011;13668;52.154;5.580;2023-04-29T06:30:34;12.13;;;5.88;;
24357;SDS011;13668;52.154;5.580;2023-04-29T06:33:00;7.35;;;5.15;;
24357;SDS011;13668;52.154;5.580;2023-04-29T06:35:26;9.93;;;5.78;;
24357;SDS011;13668;52.154;5.580;2023-04-29T06:37:52;9.38;;;5.93;;
24357;SDS011;13668;52.154;5.580;2023-04-29T06:40:20;13.18;;;6.03;;
24357;SDS011;13668;52.154;5.580;2023-04-29T06:42:46;9.02;;;5.53;;
24357;SDS011;13668;52.154;5.580;2023-04-29T06:45:12;8.75;;;5.75;;
24357;SDS011;13668;52.154;5.580;2023-04-29T06:47:38;12.32;;;6.35;;
24357;SDS011;13668;52.154;5.580;2023-04-29T06:50:04;9.50;;;6.18;;
24357;SDS011;13668;52.154;5.580;2023-04-29T06:52:30;8.48;;;5.47;;
24357;SDS011;13668;52.154;5.580;2023-04-29T06:54:57;9.73;;;5.47;;
24357;SDS011;13668;52.154;5.580;2023-04-29T06:57:23;11.27;;;6.88;;
24357;SDS011;13668;52.154;5.580;2023-04-29T06:59:49;11.90;;;6.15;;
24357;SDS011;13668;52.154;5.580;2023-04-29T07:02:15;11.02;;;5.13;;
24357;SDS011;13668;52.154;5.580;2023-04-29T07:04:41;9.40;;;5.55;;
24357;SDS011;13668;52.154;5.580;2023-04-29T07:07:07;10.55;;;5.38;;
24357;SDS011;13668;52.154;5.580;2023-04-29T07:09:34;12.07;;;6.43;;
24357;SDS011;13668;52.154;5.580;2023-04-29T07:12:00;10.07;;;6.38;;
24357;SDS011;13668;52.154;5.580;2023-04-29T07:14:26;11.45;;;5.85;;
24357;SDS011;13668;52.154;5.580;2023-04-29T07:16:52;9.35;;;4.90;;
24357;SDS011;13668;52.154;5.580;2023-04-29T07:19:19;8.13;;;5.18;;
24357;SDS011;13668;52.154;5.580;2023-04-29T07:21:45;8.35;;;5.43;;
24357;SDS011;13668;52.154;5.580;2023-04-29T07:24:11;11.40;;;6.32;;
24357;SDS011;13668;52.154;5.580;2023-04-29T07:26:37;9.38;;;5.05;;
24357;SDS011;13668;52.154;5.580;2023-04-29T07:29:03;8.82;;;4.95;;
24357;SDS011;13668;52.154;5.580;2023-04-29T07:31:29;8.20;;;5.15;;
24357;SDS011;13668;52.154;5.580;2023-04-29T07:33:55;7.20;;;4.65;;
24357;SDS011;13668;52.154;5.580;2023-04-29T07:36:21;11.15;;;6.20;;
24357;SDS011;13668;52.154;5.580;2023-04-29T07:38:47;6.28;;;4.93;;
24357;SDS011;13668;52.154;5.580;2023-04-29T07:41:13;6.45;;;4.38;;
24357;SDS011;13668;52.154;5.580;2023-04-29T07:43:39;6.97;;;5.00;;
24357;SDS011;13668;52.154;5.580;2023-04-29T07:46:05;6.95;;;4.45;;
24357;SDS011;13668;52.154;5.580;2023-04-29T07:48:35;8.65;;;4.53;;
24357;SDS011;13668;52.154;5.580;2023-04-29T07:51:02;11.32;;;4.93;;
24357;SDS011;13668;52.154;5.580;2023-04-29T07:53:28;6.25;;;4.18;;
24357;SDS011;13668;52.154;5.580;2023-04-29T07:55:54;6.88;;;4.45;;
24357;SDS011;13668;52.154;5.580;2023-04-29T07:58:20;4.85;;;3.70;;
24357;SDS011;13668;52.154;5.580;2023-04-29T08:00:46;5.13;;;4.20;;
24357;SDS011;13668;52.154;5.580;2023-04-29T08:03:12;5.03;;;3.80;;
24357;SDS011;13668;52.154;5.580;2023-04-29T08:05:38;5.85;;;4.30;;
24357;SDS011;13668;52.154;5.580;2023-04-29T08:08:04;5.47;;;3.80;;
24357;SDS011;13668;52.154;5.580;2023-04-29T08:10:30;6.13;;;4.38;;
24357;SDS011;13668;52.154;5.580;2023-04-29T08:12:56;4.45;;;3.22;;
24357;SDS011;13668;52.154;5.580;2023-04-29T08:15:23;6.13;;;3.42;;
24357;SDS011;13668;52.154;5.580;2023-04-29T08:17:49;5.63;;;3.45;;
24357;SDS011;13668;52.154;5.580;2023-04-29T08:20:15;5.30;;;3.35;;
24357;SDS011;13668;52.154;5.580;2023-04-29T08:22:40;6.28;;;3.83;;
24357;SDS011;13668;52.154;5.580;2023-04-29T08:25:07;6.07;;;2.95;;
24357;SDS011;13668;52.154;5.580;2023-04-29T08:27:33;5.15;;;3.28;;
24357;SDS011;13668;52.154;5.580;2023-04-29T08:29:59;4.57;;;3.45;;
24357;SDS011;13668;52.154;5.580;2023-04-29T08:32:25;6.43;;;3.88;;
24357;SDS011;13668;52.154;5.580;2023-04-29T08:34:54;4.40;;;3.22;;
24357;SDS011;13668;52.154;5.580;2023-04-29T08:37:20;4.22;;;3.35;;
24357;SDS011;13668;52.154;5.580;2023-04-29T08:39:46;4.10;;;3.17;;
24357;SDS011;13668;52.154;5.580;2023-04-29T08:42:12;3.97;;;3.28;;
24357;SDS011;13668;52.154;5.580;2023-04-29T08:44:39;5.28;;;3.40;;
24357;SDS011;13668;52.154;5.580;2023-04-29T08:47:05;5.30;;;3.20;;
24357;SDS011;13668;52.154;5.580;2023-04-29T08:49:31;5.88;;;3.38;;
24357;SDS011;13668;52.154;5.580;2023-04-29T08:51:58;4.47;;;2.75;;
24357;SDS011;13668;52.154;5.580;2023-04-29T08:54:24;4.00;;;3.10;;
24357;SDS011;13668;52.154;5.580;2023-04-29T08:56:52;3.28;;;2.55;;
24357;SDS011;13668;52.154;5.580;2023-04-29T08:59:18;3.33;;;2.78;;
24357;SDS011;13668;52.154;5.580;2023-04-29T09:01:45;3.60;;;2.50;;
24357;SDS011;13668;52.154;5.580;2023-04-29T09:04:20;5.38;;;2.58;;
24357;SDS011;13668;52.154;5.580;2023-04-29T09:06:51;3.90;;;2.80;;
24357;SDS011;13668;52.154;5.580;2023-04-29T09:09:17;2.95;;;2.72;;
24357;SDS011;13668;52.154;5.580;2023-04-29T09:11:43;3.28;;;2.63;;
24357;SDS011;13668;52.154;5.580;2023-04-29T09:14:09;3.60;;;2.88;;
24357;SDS011;13668;52.154;5.580;2023-04-29T09:16:35;3.63;;;2.70;;
24357;SDS011;13668;52.154;5.580;2023-04-29T09:19:02;3.05;;;2.20;;
24357;SDS011;13668;52.154;5.580;2023-04-29T09:21:28;3.38;;;2.63;;
24357;SDS011;13668;52.154;5.580;2023-04-29T09:24:00;5.28;;;3.00;;
24357;SDS011;13668;52.154;5.580;2023-04-29T09:26:32;2.72;;;2.15;;
24357;SDS011;13668;52.154;5.580;2023-04-29T09:29:06;5.40;;;2.40;;
24357;SDS011;13668;52.154;5.580;2023-04-29T09:31:36;3.35;;;2.65;;
24357;SDS011;13668;52.154;5.580;2023-04-29T09:34:03;4.93;;;2.88;;
24357;SDS011;13668;52.154;5.580;2023-04-29T09:39:07;3.45;;;2.88;;
24357;SDS011;13668;52.154;5.580;2023-04-29T09:41:38;2.42;;;2.22;;
24357;SDS011;13668;52.154;5.580;2023-04-29T09:44:04;2.40;;;2.20;;
24357;SDS011;13668;52.154;5.580;2023-04-29T09:46:34;2.80;;;2.47;;
24357;SDS011;13668;52.154;5.580;2023-04-29T09:49:00;3.78;;;2.33;;
24357;SDS011;13668;52.154;5.580;2023-04-29T09:51:26;2.80;;;2.33;;
24357;SDS011;13668;52.154;5.580;2023-04-29T09:53:52;2.88;;;2.60;;
24357;SDS011;13668;52.154;5.580;2023-04-29T09:56:18;2.63;;;2.42;;
24357;SDS011;13668;52.154;5.580;2023-04-29T09:58:45;2.60;;;2.40;;
24357;SDS011;13668;52.154;5.580;2023-04-29T10:01:11;2.70;;;2.47;;
24357;SDS011;13668;52.154;5.580;2023-04-29T10:03:38;3.00;;;2.42;;
24357;SDS011;13668;52.154;5.580;2023-04-29T10:06:06;2.50;;;2.30;;
24357;SDS011;13668;52.154;5.580;2023-04-29T10:08:33;3.38;;;2.60;;
24357;SDS011;13668;52.154;5.580;2023-04-29T10:11:00;2.78;;;2.53;;
24357;SDS011;13668;52.154;5.580;2023-04-29T10:13:26;4.80;;;2.20;;
24357;SDS011;13668;52.154;5.580;2023-04-29T10:18:29;3.42;;;2.33;;
24357;SDS011;13668;52.154;5.580;2023-04-29T10:21:00;2.67;;;2.03;;
24357;SDS011;13668;52.154;5.580;2023-04-29T10:23:27;3.55;;;2.30;;
24357;SDS011;13668;52.154;5.580;2023-04-29T10:25:55;2.95;;;2.10;;
24357;SDS011;13668;52.154;5.580;2023-04-29T10:28:22;4.03;;;2.50;;
24357;SDS011;13668;52.154;5.580;2023-04-29T10:30:52;4.45;;;2.35;;
24357;SDS011;13668;52.154;5.580;2023-04-29T10:33:18;3.30;;;2.60;;
24357;SDS011;13668;52.154;5.580;2023-04-29T10:35:47;4.10;;;2.67;;
24357;SDS011;13668;52.154;5.580;2023-04-29T10:38:20;5.18;;;2.90;;
24357;SDS011;13668;52.154;5.580;2023-04-29T10:40:48;4.53;;;2.47;;
24357;SDS011;13668;52.154;5.580;2023-04-29T10:43:18;3.13;;;2.50;;
24357;SDS011;13668;52.154;5.580;2023-04-29T10:45:47;2.75;;;2.53;;
24357;SDS011;13668;52.154;5.580;2023-04-29T10:48:13;3.67;;;2.13;;
24357;SDS011;13668;52.154;5.580;2023-04-29T10:53:17;3.28;;;2.25;;
24357;SDS011;13668;52.154;5.580;2023-04-29T10:55:46;3.67;;;2.35;;
24357;SDS011;13668;52.154;5.580;2023-04-29T11:00:57;2.75;;;2.20;;
24357;SDS011;13668;52.154;5.580;2023-04-29T11:06:08;2.70;;;2.25;;
24357;SDS011;13668;52.154;5.580;2023-04-29T11:08:37;4.15;;;2.67;;
24357;SDS011;13668;52.154;5.580;2023-04-29T11:11:07;2.55;;;2.33;;
24357;SDS011;13668;52.154;5.580;2023-04-29T11:13:39;3.08;;;2.78;;
24357;SDS011;13668;52.154;5.580;2023-04-29T11:16:06;2.75;;;2.28;;
24357;SDS011;13668;52.154;5.580;2023-04-29T11:18:33;3.75;;;2.85;;
24357;SDS011;13668;52.154;5.580;2023-04-29T11:23:35;3.50;;;2.47;;
24357;SDS011;13668;52.154;5.580;2023-04-29T11:26:02;3.50;;;2.38;;
24357;SDS011;13668;52.154;5.580;2023-04-29T11:28:28;3.50;;;2.17;;
24357;SDS011;13668;52.154;5.580;2023-04-29T11:30:55;4.68;;;3.00;;
24357;SDS011;13668;52.154;5.580;2023-04-29T11:33:22;3.05;;;2.33;;
24357;SDS011;13668;52.154;5.580;2023-04-29T11:35:54;3.08;;;2.40;;
24357;SDS011;13668;52.154;5.580;2023-04-29T11:38:26;3.83;;;2.70;;
24357;SDS011;13668;52.154;5.580;2023-04-29T11:40:56;2.22;;;2.03;;
24357;SDS011;13668;52.154;5.580;2023-04-29T11:43:23;4.25;;;2.30;;
24357;SDS011;13668;52.154;5.580;2023-04-29T11:45:49;2.20;;;1.90;;
24357;SDS011;13668;52.154;5.580;2023-04-29T11:48:16;3.67;;;2.08;;
24357;SDS011;13668;52.154;5.580;2023-04-29T11:50:43;7.50;;;3.05;;
24357;SDS011;13668;52.154;5.580;2023-04-29T11:53:09;2.75;;;2.30;;
24357;SDS011;13668;52.154;5.580;2023-04-29T11:55:36;4.75;;;2.88;;
24357;SDS011;13668;52.154;5.580;2023-04-29T11:58:05;4.93;;;3.03;;
24357;SDS011;13668;52.154;5.580;2023-04-29T12:00:31;3.83;;;3.05;;
24357;SDS011;13668;52.154;5.580;2023-04-29T12:02:57;2.85;;;2.65;;
24357;SDS011;13668;52.154;5.580;2023-04-29T12:05:26;4.22;;;2.70;;
24357;SDS011;13668;52.154;5.580;2023-04-29T12:07:55;4.18;;;2.75;;
24357;SDS011;13668;52.154;5.580;2023-04-29T12:10:21;3.05;;;2.65;;
24357;SDS011;13668;52.154;5.580;2023-04-29T12:12:47;3.65;;;3.17;;
24357;SDS011;13668;52.154;5.580;2023-04-29T12:15:13;5.18;;;2.92;;
24357;SDS011;13668;52.154;5.580;2023-04-29T12:17:39;4.93;;;3.38;;
24357;SDS011;13668;52.154;5.580;2023-04-29T12:20:06;4.50;;;3.00;;
24357;SDS011;13668;52.154;5.580;2023-04-29T12:22:34;4.05;;;2.80;;
24357;SDS011;13668;52.154;5.580;2023-04-29T12:25:03;3.78;;;2.47;;
24357;SDS011;13668;52.154;5.580;2023-04-29T12:27:29;4.18;;;2.65;;
24357;SDS011;13668;52.154;5.580;2023-04-29T12:29:56;5.57;;;2.92;;
24357;SDS011;13668;52.154;5.580;2023-04-29T12:32:23;3.90;;;2.87;;
24357;SDS011;13668;52.154;5.580;2023-04-29T12:34:49;3.28;;;2.42;;
24357;SDS011;13668;52.154;5.580;2023-04-29T12:37:16;5.00;;;3.22;;
24357;SDS011;13668;52.154;5.580;2023-04-29T12:39:43;3.45;;;3.13;;
24357;SDS011;13668;52.154;5.580;2023-04-29T12:42:15;3.17;;;2.88;;
24357;SDS011;13668;52.154;5.580;2023-04-29T12:44:43;3.63;;;2.63;;
24357;SDS011;13668;52.154;5.580;2023-04-29T12:47:11;4.78;;;2.30;;
24357;SDS011;13668;52.154;5.580;2023-04-29T12:49:39;3.88;;;2.75;;
24357;SDS011;13668;52.154;5.580;2023-04-29T12:52:06;4.15;;;2.67;;
24357;SDS011;13668;52.154;5.580;2023-04-29T12:54:34;5.88;;;3.00;;
24357;SDS011;13668;52.154;5.580;2023-04-29T12:57:00;3.78;;;2.97;;
24357;SDS011;13668;52.154;5.580;2023-04-29T12:59:26;5.70;;;3.22;;
24357;SDS011;13668;52.154;5.580;2023-04-29T13:01:52;4.45;;;2.53;;
24357;SDS011;13668;52.154;5.580;2023-04-29T13:04:18;3.05;;;2.53;;
24357;SDS011;13668;52.154;5.580;2023-04-29T13:06:44;2.88;;;2.08;;
24357;SDS011;13668;52.154;5.580;2023-04-29T13:09:10;2.85;;;2.17;;
24357;SDS011;13668;52.154;5.580;2023-04-29T13:11:37;3.08;;;2.40;;
24357;SDS011;13668;52.154;5.580;2023-04-29T13:14:03;3.22;;;2.38;;
24357;SDS011;13668;52.154;5.580;2023-04-29T13:16:31;2.67;;;2.45;;
24357;SDS011;13668;52.154;5.580;2023-04-29T13:18:57;3.55;;;2.53;;
24357;SDS011;13668;52.154;5.580;2023-04-29T13:21:23;4.80;;;2.47;;
24357;SDS011;13668;52.154;5.580;2023-04-29T13:23:49;3.22;;;2.10;;
24357;SDS011;13668;52.154;5.580;2023-04-29T13:26:16;2.78;;;2.10;;
24357;SDS011;13668;52.154;5.580;2023-04-29T13:28:42;3.80;;;2.05;;
24357;SDS011;13668;52.154;5.580;2023-04-29T13:31:08;3.00;;;2.17;;
24357;SDS011;13668;52.154;5.580;2023-04-29T13:33:34;3.00;;;2.10;;
24357;SDS011;13668;52.154;5.580;2023-04-29T13:36:00;3.55;;;2.40;;
24357;SDS011;13668;52.154;5.580;2023-04-29T13:38:26;2.92;;;2.22;;
24357;SDS011;13668;52.154;5.580;2023-04-29T13:40:52;3.42;;;2.47;;
24357;SDS011;13668;52.154;5.580;2023-04-29T13:43:18;2.60;;;2.35;;
24357;SDS011;13668;52.154;5.580;2023-04-29T13:45:44;4.03;;;2.58;;
24357;SDS011;13668;52.154;5.580;2023-04-29T13:48:10;3.08;;;2.35;;
24357;SDS011;13668;52.154;5.580;2023-04-29T13:50:36;2.95;;;2.20;;
24357;SDS011;13668;52.154;5.580;2023-04-29T13:53:05;3.40;;;2.58;;
24357;SDS011;13668;52.154;5.580;2023-04-29T13:55:31;4.47;;;2.50;;
24357;SDS011;13668;52.154;5.580;2023-04-29T13:57:59;2.70;;;2.25;;
24357;SDS011;13668;52.154;5.580;2023-04-29T14:00:25;5.55;;;3.17;;
24357;SDS011;13668;52.154;5.580;2023-04-29T14:02:51;5.13;;;3.25;;
24357;SDS011;13668;52.154;5.580;2023-04-29T14:05:17;3.67;;;2.95;;
24357;SDS011;13668;52.154;5.580;2023-04-29T14:07:43;4.80;;;3.05;;
24357;SDS011;13668;52.154;5.580;2023-04-29T14:10:09;2.60;;;2.05;;
24357;SDS011;13668;52.154;5.580;2023-04-29T14:12:35;5.68;;;2.85;;
24357;SDS011;13668;52.154;5.580;2023-04-29T14:15:01;3.28;;;2.85;;
24357;SDS011;13668;52.154;5.580;2023-04-29T14:17:27;2.92;;;2.20;;
24357;SDS011;13668;52.154;5.580;2023-04-29T14:19:53;4.47;;;2.92;;
24357;SDS011;13668;52.154;5.580;2023-04-29T14:22:19;4.85;;;2.75;;
24357;SDS011;13668;52.154;5.580;2023-04-29T14:24:46;3.83;;;2.70;;
24357;SDS011;13668;52.154;5.580;2023-04-29T14:27:12;3.53;;;2.90;;
24357;SDS011;13668;52.154;5.580;2023-04-29T14:29:39;4.43;;;3.28;;
24357;SDS011;13668;52.154;5.580;2023-04-29T14:32:05;4.03;;;2.70;;
24357;SDS011;13668;52.154;5.580;2023-04-29T14:34:31;3.83;;;2.22;;
24357;SDS011;13668;52.154;5.580;2023-04-29T14:36:57;3.88;;;2.78;;
24357;SDS011;13668;52.154;5.580;2023-04-29T14:39:23;5.40;;;2.85;;
24357;SDS011;13668;52.154;5.580;2023-04-29T14:41:50;4.80;;;3.25;;
24357;SDS011;13668;52.154;5.580;2023-04-29T14:44:16;4.97;;;3.28;;
24357;SDS011;13668;52.154;5.580;2023-04-29T14:46:42;3.22;;;2.20;;
24357;SDS011;13668;52.154;5.580;2023-04-29T14:49:08;4.50;;;2.55;;
24357;SDS011;13668;52.154;5.580;2023-04-29T14:51:34;3.28;;;1.88;;
24357;SDS011;13668;52.154;5.580;2023-04-29T14:54:00;4.65;;;2.60;;
24357;SDS011;13668;52.154;5.580;2023-04-29T14:56:26;3.72;;;2.53;;
24357;SDS011;13668;52.154;5.580;2023-04-29T14:58:52;3.75;;;3.00;;